Time;durP1;ratioP1;P1;durP2;ratioP2;P2;SDS_P1;SDS_P2;PMS_P1;PMS_P2;Temp;Humidity;BMP_temperature;BMP_pressure;BME280_temperature;BME280_humidity;BME280_pressure;Samples;Min_cycle;Max_cycle;Signal;HPM_P1;HPM_P2
2022/08/28 07:40:33;;;;;;;2.90;1.48;;;16.40;99.90;;;;;;5931814;23;20126;31
2022/08/28 07:45:43;;;;;;;4.60;1.30;;;16.60;99.90;;;;;;4808220;29;20103;-76
2022/08/28 07:48:09;;;;;;;3.33;1.10;;;16.70;99.90;;;;;;4808378;29;20035;-76
2022/08/28 07:50:34;;;;;;;3.92;1.55;;;16.70;99.90;;;;;;4807146;29;20034;-76
2022/08/28 07:53:00;;;;;;;2.83;1.08;;;16.80;99.90;;;;;;4808317;29;20061;-76
2022/08/28 07:55:28;;;;;;;3.20;0.90;;;16.90;99.90;;;;;;4808107;29;20030;-76
2022/08/28 07:57:54;;;;;;;5.47;1.40;;;16.90;99.90;;;;;;4807897;29;20156;-76
2022/08/28 08:00:20;;;;;;;3.17;1.25;;;16.90;99.90;;;;;;4808173;29;20075;-76
2022/08/28 08:02:46;;;;;;;4.82;1.25;;;17.00;99.90;;;;;;4807955;29;20030;-76
2022/08/28 08:05:12;;;;;;;3.15;1.50;;;17.00;99.90;;;;;;4807932;29;20084;-76
2022/08/28 08:07:38;;;;;;;5.47;1.08;;;17.10;99.90;;;;;;4807232;29;20058;-76
2022/08/28 08:10:06;;;;;;;3.38;1.33;;;17.20;99.90;;;;;;4807976;29;20051;-76
2022/08/28 08:12:33;;;;;;;5.80;1.20;;;17.30;99.90;;;;;;4806647;29;20087;-76
2022/08/28 08:14:59;;;;;;;2.25;0.98;;;17.40;99.90;;;;;;4807941;29;20029;-76
2022/08/28 08:17:25;;;;;;;3.53;0.93;;;17.50;99.90;;;;;;4807751;29;20105;-76
2022/08/28 08:19:50;;;;;;;8.00;1.33;;;17.60;99.90;;;;;;4807981;29;20135;-76
2022/08/28 08:22:17;;;;;;;3.80;0.82;;;17.70;99.90;;;;;;4807780;29;20476;-76
2022/08/28 08:24:43;;;;;;;2.92;1.38;;;17.80;99.90;;;;;;4807634;29;20031;-76
2022/08/28 08:27:09;;;;;;;4.65;1.13;;;18.10;99.90;;;;;;4807208;29;20451;-76
2022/08/28 08:29:37;;;;;;;2.85;1.13;;;18.20;99.90;;;;;;4806412;29;20553;-76
2022/08/28 08:32:06;;;;;;;4.25;1.08;;;18.40;99.90;;;;;;4807770;29;20404;-76
2022/08/28 08:34:39;;;;;;;3.63;0.93;;;18.70;99.90;;;;;;4807720;29;20065;-76
2022/08/28 08:37:05;;;;;;;7.13;1.05;;;18.80;99.90;;;;;;4807460;29;20038;-76
2022/08/28 08:39:31;;;;;;;5.47;1.13;;;18.90;99.90;;;;;;4807599;29;20039;-76
2022/08/28 08:41:59;;;;;;;2.10;0.90;;;19.00;99.90;;;;;;4854496;24;20065;-74
2022/08/28 08:44:44;;;;;;;1.00;0.80;;;19.10;99.90;;;;;;4866182;29;20059;-74
2022/08/28 08:47:21;;;;;;;8.90;3.03;;;19.40;99.90;;;;;;4862190;29;20444;-74
2022/08/28 08:50:00;;;;;;;5.10;0.93;;;19.60;99.90;;;;;;4861875;29;20395;-74
2022/08/28 08:52:49;;;;;;;3.17;0.85;;;19.90;99.90;;;;;;4862195;29;20033;-75
2022/08/28 08:55:34;;;;;;;1.25;0.50;;;20.20;96.30;;;;;;4862118;29;20394;-75
2022/08/28 08:58:10;;;;;;;7.10;1.02;;;20.40;99.50;;;;;;4862131;29;20073;-75
2022/08/28 09:01:08;;;;;;;4.82;1.38;;;20.50;95.80;;;;;;4862124;29;20034;-75
2022/08/28 09:03:58;;;;;;;4.15;1.35;;;20.70;91.50;;;;;;4859120;29;20069;-75
2022/08/28 09:06:42;;;;;;;3.20;0.68;;;20.90;88.90;;;;;;4860661;29;20120;-74
2022/08/28 09:09:29;;;;;;;5.82;0.95;;;21.10;87.80;;;;;;4860709;29;20108;-74
2022/08/28 09:12:02;;;;;;;3.97;1.05;;;21.00;80.60;;;;;;4858225;29;20038;-74
2022/08/28 09:14:46;;;;;;;4.25;1.02;;;21.10;88.90;;;;;;4861835;29;20029;-73
2022/08/28 09:17:17;;;;;;;1.48;0.80;;;21.30;82.50;;;;;;4861784;29;20025;-73
2022/08/28 09:19:42;;;;;;;0.95;0.40;;;21.70;81.80;;;;;;4861605;29;20029;-74
2022/08/28 09:22:08;;;;;;;2.47;0.93;;;21.80;78.30;;;;;;4861409;29;20154;-74
2022/08/28 09:24:35;;;;;;;5.75;0.80;;;22.00;77.90;;;;;;4861510;29;20388;-74
2022/08/28 09:27:03;;;;;;;3.33;0.75;;;22.00;73.90;;;;;;4861437;29;20060;-73
2022/08/28 09:29:42;;;;;;;4.13;0.70;;;22.00;73.30;;;;;;4861388;29;20030;-74
2022/08/28 09:32:28;;;;;;;1.30;0.80;;;22.10;71.30;;;;;;4861649;29;20031;-73
2022/08/28 09:35:18;;;;;;;5.72;1.15;;;22.20;72.60;;;;;;4861255;29;20065;-73
2022/08/28 09:37:43;;;;;;;2.75;0.85;;;22.60;70.10;;;;;;4860933;29;20033;-74
2022/08/28 09:43:25;;;;;;;3.90;0.85;;;22.90;67.60;;;;;;4861166;29;20070;-74
2022/08/28 09:46:08;;;;;;;4.20;0.77;;;23.10;67.40;;;;;;4861145;29;20029;-73
2022/08/28 09:48:42;;;;;;;3.05;0.63;;;23.20;68.10;;;;;;4859857;29;20041;-73
2022/08/28 09:51:28;;;;;;;1.88;0.40;;;24.20;64.80;;;;;;4861046;29;20029;-74
2022/08/28 09:54:00;;;;;;;2.95;0.63;;;25.70;60.80;;;;;;4860959;29;20056;-73
2022/08/28 09:56:33;;;;;;;3.08;0.60;;;26.70;55.20;;;;;;4860863;29;20064;-74
2022/08/28 09:59:07;;;;;;;4.03;0.70;;;27.80;51.50;;;;;;4860690;29;20034;-74
2022/08/28 10:01:52;;;;;;;5.85;0.65;;;28.90;51.10;;;;;;4860306;29;20036;-74
2022/08/28 10:04:40;;;;;;;6.93;1.33;;;29.60;45.40;;;;;;4859362;29;20034;-74
2022/08/28 10:07:32;;;;;;;2.65;0.75;;;28.90;45.00;;;;;;4859153;29;20390;-74
2022/08/28 10:10:16;;;;;;;3.38;0.93;;;27.90;46.40;;;;;;4861166;29;20416;-74
2022/08/28 10:12:49;;;;;;;5.00;0.95;;;27.00;49.40;;;;;;4860639;29;20030;-74
2022/08/28 10:15:32;;;;;;;3.95;1.02;;;27.10;52.50;;;;;;4860530;29;20487;-74
2022/08/28 10:18:13;;;;;;;6.55;0.85;;;28.10;48.70;;;;;;4860522;29;20484;-74
2022/08/28 10:21:06;;;;;;;4.15;0.47;;;28.70;48.80;;;;;;4860697;29;20057;-74
2022/08/28 10:24:05;;;;;;;4.85;0.95;;;30.40;43.50;;;;;;4860128;29;20037;-74
2022/08/28 10:26:48;;;;;;;5.65;0.70;;;29.60;43.40;;;;;;4860219;29;20395;-74
2022/08/28 10:29:56;;;;;;;5.82;0.90;;;29.30;43.90;;;;;;4860290;29;20022;-74
2022/08/28 10:33:01;;;;;;;2.08;0.73;;;29.00;44.20;;;;;;4839415;29;20191;-74
2022/08/28 10:35:49;;;;;;;4.38;0.88;;;29.50;44.50;;;;;;4839230;29;20488;-73
2022/08/28 10:38:20;;;;;;;3.17;0.80;;;30.10;42.20;;;;;;4857924;29;20132;-74
2022/08/28 10:41:13;;;;;;;3.65;0.75;;;31.20;40.40;;;;;;4860731;29;20022;-74
2022/08/28 10:43:47;;;;;;;4.47;0.80;;;31.70;39.30;;;;;;4860130;29;20482;-75
2022/08/28 10:46:29;;;;;;;1.02;0.65;;;31.50;39.00;;;;;;4859921;29;20120;-75
2022/08/28 10:49:03;;;;;;;2.47;0.60;;;30.40;41.00;;;;;;4859839;29;20032;-74
2022/08/28 10:51:44;;;;;;;4.65;0.88;;;29.00;43.20;;;;;;4859846;29;20395;-75
2022/08/28 10:54:22;;;;;;;8.05;1.25;;;27.40;47.00;;;;;;4860092;29;20035;-74
2022/08/28 10:56:58;;;;;;;5.43;0.80;;;26.10;49.50;;;;;;4859931;29;20057;-74
2022/08/28 10:59:28;;;;;;;1.52;0.75;;;24.80;54.80;;;;;;4860011;29;20490;-74
2022/08/28 11:01:54;;;;;;;5.70;0.90;;;23.90;57.00;;;;;;4859844;29;20109;-74
2022/08/28 11:04:22;;;;;;;3.42;0.80;;;24.00;60.30;;;;;;4859913;29;20113;-74
2022/08/28 11:07:02;;;;;;;4.25;1.08;;;24.00;60.20;;;;;;4858521;29;20038;-74
2022/08/28 11:09:35;;;;;;;1.88;0.45;;;24.30;62.20;;;;;;4859537;29;20022;-74
2022/08/28 11:12:08;;;;;;;2.10;0.52;;;25.80;55.30;;;;;;4859636;29;20060;-74
2022/08/28 11:14:36;;;;;;;2.92;0.55;;;26.60;50.60;;;;;;4858783;29;20033;-74
2022/08/28 11:17:08;;;;;;;2.38;1.08;;;26.90;49.70;;;;;;4859832;29;20105;-74
2022/08/28 11:19:42;;;;;;;2.70;0.63;;;26.50;52.90;;;;;;4859512;29;20025;-74
2022/08/28 11:22:16;;;;;;;1.83;0.60;;;25.90;53.30;;;;;;4859205;29;20033;-74
2022/08/28 11:24:50;;;;;;;4.97;1.00;;;25.40;52.70;;;;;;4859678;29;20032;-74
2022/08/28 11:27:24;;;;;;;2.75;1.02;;;24.90;53.20;;;;;;4859579;29;20482;-74
2022/08/28 11:30:25;;;;;;;3.80;0.55;;;24.50;56.50;;;;;;4859350;29;20029;-74
2022/08/28 11:32:51;;;;;;;2.00;0.60;;;24.20;53.80;;;;;;4859418;29;20100;-74
2022/08/28 11:35:19;;;;;;;2.83;0.75;;;24.60;54.60;;;;;;4859570;29;20170;-74
2022/08/28 11:37:50;;;;;;;2.25;0.90;;;24.90;53.10;;;;;;4859244;29;20491;-74
2022/08/28 11:40:31;;;;;;;2.90;0.70;;;25.20;54.20;;;;;;4858293;29;20029;-74
2022/08/28 11:43:14;;;;;;;2.63;0.50;;;25.80;53.00;;;;;;4882509;23;20529;-77
2022/08/28 11:45:46;;;;;;;4.55;1.00;;;26.10;51.60;;;;;;4859243;29;20113;-77
2022/08/28 11:48:36;;;;;;;2.13;0.70;;;26.40;51.80;;;;;;4859443;29;20106;-77
2022/08/28 11:51:17;;;;;;;5.95;1.45;;;26.50;50.50;;;;;;4859207;29;20109;-77
2022/08/28 11:54:21;;;;;;;3.80;0.73;;;26.80;51.20;;;;;;4859433;29;20041;-77
2022/08/28 11:57:14;;;;;;;2.63;0.73;;;27.30;48.20;;;;;;4838574;29;20273;-76
2022/08/28 11:59:42;;;;;;;4.82;0.65;;;29.00;46.20;;;;;;4858773;29;20045;-77
2022/08/28 12:02:39;;;;;;;4.50;1.02;;;30.30;44.60;;;;;;4859275;29;20022;-77
2022/08/28 12:05:15;;;;;;;4.43;0.95;;;31.10;41.20;;;;;;4859248;29;20022;-77
2022/08/28 12:07:42;;;;;;;3.67;0.70;;;31.70;41.20;;;;;;4857616;29;20041;-78
2022/08/28 12:10:26;;;;;;;2.97;0.82;;;30.90;38.90;;;;;;4858793;29;20084;-77
2022/08/28 12:12:59;;;;;;;4.47;1.00;;;29.80;43.00;;;;;;4859302;29;20474;-77
2022/08/28 12:15:27;;;;;;;3.47;1.08;;;28.80;43.10;;;;;;4859245;29;20022;-77
2022/08/28 12:18:00;;;;;;;2.70;0.80;;;29.10;45.00;;;;;;4859213;29;20060;-77
2022/08/28 12:20:33;;;;;;;2.63;0.93;;;29.50;43.70;;;;;;4857644;29;20040;-78
2022/08/28 12:23:20;;;;;;;3.63;0.77;;;29.50;43.80;;;;;;4858759;29;20025;-77
2022/08/28 12:25:46;;;;;;;5.18;0.75;;;28.90;44.00;;;;;;4860541;29;20069;-77
2022/08/28 12:28:31;;;;;;;3.70;1.00;;;27.70;46.80;;;;;;4862572;29;20033;-77
2022/08/28 12:31:03;;;;;;;3.38;0.90;;;26.80;47.90;;;;;;4861188;29;20032;-77
2022/08/28 12:33:56;;;;;;;5.45;1.05;;;25.90;49.80;;;;;;4862356;29;20063;-77
2022/08/28 12:36:27;;;;;;;4.43;1.08;;;25.30;52.10;;;;;;4862321;29;20060;-77
2022/08/28 12:38:56;;;;;;;4.75;0.75;;;25.20;55.00;;;;;;4861965;29;20026;-77
2022/08/28 12:41:23;;;;;;;3.15;0.90;;;25.50;56.00;;;;;;4862702;29;20564;-77
2022/08/28 12:43:55;;;;;;;5.45;0.88;;;27.20;52.90;;;;;;4862136;29;20089;-77
2022/08/28 12:46:27;;;;;;;2.80;0.73;;;28.40;50.30;;;;;;4860975;29;20462;-77
2022/08/28 12:49:00;;;;;;;2.63;1.20;;;28.60;47.70;;;;;;4862148;29;20021;-77
2022/08/28 12:51:29;;;;;;;1.65;0.60;;;28.60;48.10;;;;;;4862018;29;20066;-77
2022/08/28 12:53:58;;;;;;;2.70;0.70;;;29.30;45.30;;;;;;4861620;29;20125;-78
2022/08/28 12:56:28;;;;;;;3.95;0.90;;;31.40;39.70;;;;;;4861965;29;20038;-78
2022/08/28 12:58:54;;;;;;;3.42;0.93;;;32.80;36.50;;;;;;4862008;29;20017;-77
2022/08/28 13:01:32;;;;;;;2.85;0.80;;;33.90;36.20;;;;;;4861975;29;20081;-77
2022/08/28 13:04:01;;;;;;;7.15;0.90;;;34.50;31.60;;;;;;4861544;29;20028;-77
2022/08/28 13:06:32;;;;;;;1.55;0.50;;;33.70;33.50;;;;;;4860813;29;20090;-78
2022/08/28 13:09:12;;;;;;;2.10;0.90;;;34.00;31.90;;;;;;4861633;29;20093;-78
2022/08/28 13:11:44;;;;;;;3.88;1.38;;;35.40;30.80;;;;;;4861527;29;20033;-77
2022/08/28 13:14:10;;;;;;;5.07;0.63;;;34.70;30.00;;;;;;4861670;29;20116;-77
2022/08/28 13:16:40;;;;;;;3.53;0.68;;;33.40;32.20;;;;;;4861643;29;20450;-78
2022/08/28 13:19:05;;;;;;;1.35;0.50;;;33.60;33.30;;;;;;4861739;29;20461;-78
2022/08/28 13:21:36;;;;;;;2.65;0.50;;;34.50;31.50;;;;;;4861266;29;20494;-78
2022/08/28 13:24:22;;;;;;;4.23;0.60;;;33.70;31.50;;;;;;4861406;29;20025;-77
2022/08/28 13:26:59;;;;;;;3.65;0.70;;;32.70;33.50;;;;;;4860164;29;20296;-78
2022/08/28 13:29:25;;;;;;;5.30;0.88;;;32.10;35.30;;;;;;4861486;29;20029;-78
2022/08/28 13:32:01;;;;;;;4.10;0.73;;;30.90;37.50;;;;;;4861529;29;20021;-77
2022/08/28 13:34:30;;;;;;;5.47;0.82;;;28.60;40.50;;;;;;4861123;29;20078;-77
2022/08/28 13:36:58;;;;;;;2.78;0.80;;;27.40;42.60;;;;;;4858762;29;20029;-77
2022/08/28 13:39:29;;;;;;;4.85;0.95;;;26.40;43.50;;;;;;4860907;29;20033;-77
2022/08/28 13:41:58;;;;;;;2.20;0.80;;;25.50;46.10;;;;;;4861483;29;20494;-77
2022/08/28 13:44:31;;;;;;;3.80;0.77;;;24.80;48.30;;;;;;4861236;29;20030;-77
2022/08/28 13:46:59;;;;;;;3.53;0.75;;;24.50;48.50;;;;;;4861140;29;20045;-77
2022/08/28 13:49:28;;;;;;;3.33;0.90;;;24.80;50.30;;;;;;4861064;29;20028;-77
2022/08/28 13:51:57;;;;;;;2.10;0.30;;;27.20;46.20;;;;;;4860836;29;20030;-77
2022/08/28 13:54:23;;;;;;;5.22;0.65;;;30.00;42.80;;;;;;4861100;29;20483;-77
2022/08/28 13:56:49;;;;;;;2.28;0.52;;;32.00;36.20;;;;;;4861069;29;20062;-78
2022/08/28 13:59:15;;;;;;;3.33;0.77;;;33.50;33.70;;;;;;4860985;29;20387;-77
2022/08/28 14:04:25;;;;;;;2.40;0.50;;;34.60;30.20;;;;;;4860562;29;20058;-78
2022/08/28 14:06:51;;;;;;;3.30;0.77;;;34.60;30.00;;;;;;4859530;29;20029;-77
2022/08/28 14:09:17;;;;;;;2.47;0.50;;;35.20;31.00;;;;;;4860634;29;20025;-77
2022/08/28 14:11:43;;;;;;;2.83;0.50;;;35.40;30.40;;;;;;4860470;29;20048;-77
2022/08/28 14:14:10;;;;;;;1.50;0.50;;;35.70;29.40;;;;;;4860539;29;20105;-78
2022/08/28 14:16:36;;;;;;;2.92;0.60;;;35.50;30.80;;;;;;4860579;29;20081;-77
2022/08/28 14:19:04;;;;;;;1.55;0.70;;;36.30;29.70;;;;;;4859339;29;20029;-78
2022/08/28 14:21:38;;;;;;;1.15;0.52;;;36.10;28.90;;;;;;4860454;29;20105;-77
2022/08/28 14:24:05;;;;;;;3.60;0.55;;;34.80;30.10;;;;;;4860301;29;20056;-77
2022/08/28 14:26:31;;;;;;;4.25;0.40;;;33.10;30.80;;;;;;4860240;29;20553;-78
2022/08/28 14:29:00;;;;;;;3.35;0.60;;;32.00;32.80;;;;;;4860475;29;20093;-78
2022/08/28 14:31:28;;;;;;;2.00;0.65;;;29.70;36.00;;;;;;4860208;29;20033;-77
2022/08/28 14:33:57;;;;;;;2.55;0.60;;;29.70;40.10;;;;;;4860329;29;20029;-77
2022/08/28 14:36:26;;;;;;;1.85;0.60;;;31.80;36.80;;;;;;4858926;29;20033;-77
2022/08/28 14:38:53;;;;;;;4.13;0.80;;;33.30;34.80;;;;;;4860049;29;20018;-77
2022/08/28 14:41:20;;;;;;;3.85;0.70;;;32.90;34.10;;;;;;4860654;29;20506;-78
2022/08/28 14:43:48;;;;;;;2.65;0.70;;;32.80;34.40;;;;;;4859811;29;20061;-77
2022/08/28 14:46:19;;;;;;;1.95;0.73;;;33.00;33.60;;;;;;4859889;29;20116;-78
2022/08/28 14:48:46;;;;;;;3.65;0.80;;;32.00;33.80;;;;;;4859875;29;20022;-78
2022/08/28 14:51:13;;;;;;;3.33;1.02;;;29.60;34.90;;;;;;4860209;29;20049;-77
2022/08/28 14:53:39;;;;;;;3.60;0.77;;;28.30;39.50;;;;;;4859739;29;20538;-77
2022/08/28 14:56:06;;;;;;;4.30;0.80;;;28.20;43.20;;;;;;4859913;29;20037;-77
2022/08/28 14:58:33;;;;;;;2.63;0.65;;;29.50;41.30;;;;;;4859834;29;20025;-78
2022/08/28 15:00:59;;;;;;;3.97;0.60;;;30.00;37.60;;;;;;4859828;29;20085;-77
2022/08/28 15:03:25;;;;;;;3.58;0.50;;;29.80;38.90;;;;;;4859807;29;20026;-78
2022/08/28 15:06:08;;;;;;;1.80;0.80;;;29.20;37.50;;;;;;4859800;29;20033;-77
2022/08/28 15:08:35;;;;;;;2.70;0.60;;;27.80;39.80;;;;;;4823103;29;20062;-78
2022/08/28 15:11:06;;;;;;;2.13;0.70;;;27.00;40.90;;;;;;4823286;29;20117;-77
2022/08/28 15:13:31;;;;;;;4.27;0.97;;;26.50;43.80;;;;;;4823214;29;20384;-77
2022/08/28 15:16:06;;;;;;;2.25;0.68;;;27.10;42.90;;;;;;4823012;29;20027;-77
2022/08/28 15:18:33;;;;;;;2.58;0.70;;;27.90;39.70;;;;;;4823183;29;20069;-77
2022/08/28 15:20:59;;;;;;;2.17;0.68;;;28.50;39.90;;;;;;4823305;29;20481;-77
2022/08/28 15:23:25;;;;;;;3.58;0.70;;;27.90;40.80;;;;;;4822853;29;20034;-77
2022/08/28 15:25:51;;;;;;;4.00;0.57;;;27.10;43.20;;;;;;4822857;29;20105;-77
2022/08/28 15:28:17;;;;;;;2.83;0.60;;;26.20;43.00;;;;;;4823222;29;20042;-77
2022/08/28 15:30:45;;;;;;;1.42;0.70;;;25.70;45.80;;;;;;4821677;29;20389;-77
2022/08/28 15:33:12;;;;;;;6.55;0.68;;;26.40;46.40;;;;;;4822853;29;20036;-77
2022/08/28 15:35:38;;;;;;;5.35;0.52;;;27.90;43.60;;;;;;4823054;29;20033;-77
2022/08/28 15:38:04;;;;;;;2.35;0.75;;;29.80;41.50;;;;;;4852106;29;20035;-77
2022/08/28 15:43:14;;;;;;;2.63;0.60;;;30.40;36.60;;;;;;4859654;29;20056;-77
2022/08/28 15:45:41;;;;;;;2.95;0.88;;;30.50;37.50;;;;;;4859360;29;20046;-77
2022/08/28 15:48:07;;;;;;;1.35;0.60;;;30.60;35.90;;;;;;4859482;29;20033;-77
2022/08/28 15:50:34;;;;;;;3.53;0.60;;;30.30;40.50;;;;;;4859161;29;20033;-77
2022/08/28 15:53:00;;;;;;;2.42;0.55;;;29.90;36.70;;;;;;4857756;29;20037;-77
2022/08/28 15:55:26;;;;;;;5.22;1.08;;;28.30;38.50;;;;;;4859185;29;20048;-78
2022/08/28 15:57:53;;;;;;;3.30;0.85;;;27.50;40.80;;;;;;4859295;29;20094;-77
2022/08/28 16:00:19;;;;;;;4.50;0.75;;;26.70;42.70;;;;;;4860060;29;20021;-77
2022/08/28 16:02:44;;;;;;;3.45;0.73;;;26.00;45.60;;;;;;4862961;29;20026;-77
2022/08/28 16:05:10;;;;;;;3.58;0.50;;;25.60;44.10;;;;;;4862692;29;20424;-77
2022/08/28 16:07:36;;;;;;;4.13;0.80;;;25.50;46.90;;;;;;4861355;29;20041;-77
2022/08/28 16:10:05;;;;;;;1.42;0.50;;;25.50;46.20;;;;;;4862868;29;20087;-77
2022/08/28 16:12:32;;;;;;;0.70;0.57;;;25.30;47.00;;;;;;4862819;29;20054;-77
2022/08/28 16:14:58;;;;;;;1.85;0.43;;;24.70;46.00;;;;;;4862822;29;20093;-77
2022/08/28 16:17:24;;;;;;;1.00;0.43;;;24.70;48.60;;;;;;4862784;29;20407;-77
2022/08/28 16:19:49;;;;;;;3.42;0.80;;;24.60;48.70;;;;;;4862404;29;20061;-77
2022/08/28 16:22:16;;;;;;;2.58;0.60;;;24.50;47.80;;;;;;4862414;29;20025;-77
2022/08/28 16:24:43;;;;;;;2.65;0.60;;;24.40;49.20;;;;;;4862494;29;20029;-77
2022/08/28 16:27:08;;;;;;;4.13;0.52;;;24.40;49.80;;;;;;4862488;29;20038;-77
2022/08/28 16:29:34;;;;;;;1.80;0.70;;;24.20;50.00;;;;;;4862503;29;20032;-77
2022/08/28 16:32:00;;;;;;;1.40;0.50;;;24.30;52.40;;;;;;4862426;29;20538;-77
2022/08/28 16:34:26;;;;;;;3.00;0.63;;;24.00;49.50;;;;;;4862171;29;20033;-77
2022/08/28 16:36:51;;;;;;;2.28;0.45;;;23.90;50.80;;;;;;4861905;29;20112;-77
2022/08/28 16:39:17;;;;;;;4.18;0.68;;;23.90;51.30;;;;;;4862153;29;20053;-77
2022/08/28 16:41:48;;;;;;;3.55;0.60;;;24.00;52.20;;;;;;4862573;29;20112;-77
2022/08/28 16:44:17;;;;;;;2.22;0.50;;;23.80;51.90;;;;;;4861894;29;20074;-77
2022/08/28 16:46:43;;;;;;;3.22;0.57;;;23.90;51.40;;;;;;4860834;29;20652;-77
2022/08/28 16:49:09;;;;;;;1.27;0.52;;;24.10;53.00;;;;;;4862199;29;20112;-77
2022/08/28 16:51:36;;;;;;;0.82;0.50;;;24.30;50.60;;;;;;4862272;29;20044;-77
2022/08/28 16:54:01;;;;;;;1.88;0.50;;;24.40;50.80;;;;;;4861701;29;20021;-77
2022/08/28 16:56:27;;;;;;;0.82;0.50;;;24.60;51.10;;;;;;4861853;29;20099;-77
2022/08/28 16:58:53;;;;;;;2.83;0.60;;;24.80;51.40;;;;;;4861677;29;20549;-77
2022/08/28 17:01:20;;;;;;;1.15;0.60;;;24.70;51.20;;;;;;4861872;29;20021;-78
2022/08/28 17:03:46;;;;;;;2.30;0.85;;;24.60;51.70;;;;;;4860456;29;20024;-77
2022/08/28 17:06:18;;;;;;;1.98;0.75;;;24.40;52.00;;;;;;4861605;29;20037;-77
2022/08/28 17:08:45;;;;;;;2.83;0.60;;;24.30;53.20;;;;;;4861935;29;20049;-77
2022/08/28 17:11:12;;;;;;;1.77;0.70;;;24.10;52.00;;;;;;4861290;29;20029;-77
2022/08/28 17:13:38;;;;;;;2.40;0.77;;;24.00;52.90;;;;;;4861063;29;20022;-77
2022/08/28 17:16:05;;;;;;;2.13;0.85;;;24.00;51.80;;;;;;4860582;29;20552;-77
2022/08/28 17:18:31;;;;;;;3.15;0.65;;;23.80;52.20;;;;;;4861534;29;20099;-77
2022/08/28 17:23:41;;;;;;;2.58;0.68;;;23.80;54.00;;;;;;4861649;29;20550;-77
2022/08/28 17:26:07;;;;;;;5.75;0.75;;;23.70;53.30;;;;;;4861223;29;20030;-77
2022/08/28 17:28:33;;;;;;;1.45;0.50;;;23.40;54.20;;;;;;4861465;29;20029;-77
2022/08/28 17:30:59;;;;;;;2.75;0.57;;;23.40;54.90;;;;;;4861401;29;20029;-77
2022/08/28 17:33:25;;;;;;;1.52;0.50;;;23.10;54.40;;;;;;4861046;29;20535;-77
2022/08/28 17:35:53;;;;;;;4.03;0.75;;;23.00;54.50;;;;;;4861306;29;20026;-77
2022/08/28 17:38:20;;;;;;;2.20;0.57;;;22.90;55.90;;;;;;4860123;29;20028;-77
2022/08/28 17:40:46;;;;;;;4.30;0.65;;;22.80;56.30;;;;;;4861221;29;20025;-77
2022/08/28 17:43:12;;;;;;;2.45;0.60;;;22.60;57.70;;;;;;4861580;29;20037;-77
2022/08/28 17:45:37;;;;;;;4.82;0.70;;;22.50;57.80;;;;;;4860972;29;20479;-77
2022/08/28 17:48:04;;;;;;;2.83;0.82;;;22.40;57.70;;;;;;4860966;29;20128;-77
2022/08/28 17:50:30;;;;;;;4.70;0.90;;;22.40;59.60;;;;;;4860896;29;20026;-77
2022/08/28 17:52:55;;;;;;;1.45;0.70;;;22.30;58.60;;;;;;4860931;29;20479;-77
2022/08/28 17:55:21;;;;;;;2.42;0.70;;;22.20;59.10;;;;;;4860893;29;20040;-77
2022/08/28 17:57:47;;;;;;;3.70;0.80;;;22.00;59.70;;;;;;4860813;29;20026;-77
2022/08/28 18:00:15;;;;;;;3.30;0.70;;;21.90;61.90;;;;;;4860815;29;20041;-77
2022/08/28 18:02:42;;;;;;;3.20;0.60;;;21.60;60.90;;;;;;4860820;29;20390;-77
2022/08/28 18:05:09;;;;;;;0.88;0.60;;;21.30;60.70;;;;;;4860783;29;20034;-77
2022/08/28 18:07:36;;;;;;;1.98;0.60;;;21.10;62.00;;;;;;4859600;29;20444;-77
2022/08/28 18:10:02;;;;;;;3.53;0.60;;;20.80;63.30;;;;;;4860660;29;20018;-77
2022/08/28 18:12:28;;;;;;;1.05;0.52;;;20.60;63.80;;;;;;4860652;29;20030;-77
2022/08/28 18:14:53;;;;;;;1.58;0.88;;;20.50;67.10;;;;;;4860375;29;20053;-77
2022/08/28 18:17:19;;;;;;;1.73;0.73;;;20.30;66.60;;;;;;4860422;29;20082;-77
2022/08/28 18:19:45;;;;;;;3.47;0.77;;;20.10;69.60;;;;;;4860509;29;20037;-77
2022/08/28 18:22:11;;;;;;;1.25;0.60;;;19.90;69.20;;;;;;4860156;29;20074;-77
2022/08/28 18:24:38;;;;;;;3.38;0.57;;;19.80;67.90;;;;;;4858666;29;20033;-77
2022/08/28 18:27:06;;;;;;;1.20;0.60;;;19.70;70.40;;;;;;4860247;29;20116;-77
2022/08/28 18:29:33;;;;;;;3.95;0.80;;;19.60;71.40;;;;;;4860312;29;20109;-77
2022/08/28 18:32:00;;;;;;;1.55;0.70;;;19.40;73.40;;;;;;4858818;29;20029;-77
2022/08/28 18:34:28;;;;;;;1.65;0.65;;;19.30;73.40;;;;;;4859981;29;20448;-77
2022/08/28 18:36:54;;;;;;;1.60;0.68;;;19.20;74.90;;;;;;4860229;29;20033;-77
2022/08/28 18:39:20;;;;;;;2.15;0.63;;;19.00;77.50;;;;;;4859695;29;20030;-77
2022/08/28 18:41:46;;;;;;;2.05;0.47;;;18.90;80.40;;;;;;4860689;29;20021;-77
2022/08/28 18:44:15;;;;;;;1.52;0.70;;;18.80;78.50;;;;;;4860212;29;20030;-77
2022/08/28 18:46:42;;;;;;;4.25;0.85;;;18.60;80.60;;;;;;4860190;29;20037;-77
2022/08/28 18:49:08;;;;;;;1.05;0.50;;;18.50;83.50;;;;;;4860213;29;20022;-77
2022/08/28 18:51:34;;;;;;;2.55;0.90;;;18.40;86.80;;;;;;4860034;29;20026;-77
2022/08/28 18:54:01;;;;;;;1.73;0.50;;;18.30;90.40;;;;;;4859223;29;20646;-77
2022/08/28 18:56:28;;;;;;;2.97;0.80;;;18.20;90.40;;;;;;4859732;29;20554;-77
2022/08/28 18:58:54;;;;;;;4.20;0.90;;;18.20;89.40;;;;;;4858685;29;20033;-77
2022/08/28 19:01:20;;;;;;;1.27;0.63;;;18.10;91.70;;;;;;4859920;29;20049;-77
2022/08/28 19:03:46;;;;;;;2.33;0.60;;;18.00;90.30;;;;;;4859685;29;20064;-77
2022/08/28 19:06:13;;;;;;;2.15;0.70;;;17.90;91.60;;;;;;4860046;29;20048;-77
2022/08/28 19:08:39;;;;;;;2.95;0.68;;;17.80;93.60;;;;;;4857348;29;20029;-77
2022/08/28 19:11:10;;;;;;;3.65;0.60;;;17.70;94.70;;;;;;4859873;29;20521;-77
2022/08/28 19:13:36;;;;;;;3.67;0.70;;;17.70;95.50;;;;;;4859746;29;20025;-77
2022/08/28 19:16:02;;;;;;;1.38;0.70;;;17.60;96.70;;;;;;4859432;29;20036;-77
2022/08/28 19:18:28;;;;;;;3.42;0.73;;;17.50;99.90;;;;;;4859325;29;20375;-77
2022/08/28 19:21:08;;;;;;;2.47;1.00;;;17.40;99.60;;;;;;4859724;29;20077;-77
2022/08/28 19:23:34;;;;;;;3.10;1.00;;;17.50;98.50;;;;;;4859406;29;20022;-77
2022/08/28 19:26:00;;;;;;;4.13;0.95;;;17.50;98.50;;;;;;4859418;29;20486;-77
2022/08/28 19:28:27;;;;;;;4.05;1.00;;;17.40;99.90;;;;;;4859658;29;20507;-77
2022/08/28 19:30:53;;;;;;;1.20;0.70;;;17.40;99.60;;;;;;4859470;29;20026;-77
2022/08/28 19:33:18;;;;;;;2.63;1.25;;;17.40;99.90;;;;;;4859391;29;20479;-77
2022/08/28 19:35:44;;;;;;;3.90;1.10;;;17.30;99.90;;;;;;4857755;29;20032;-77
2022/08/28 19:38:10;;;;;;;2.55;0.80;;;17.20;99.90;;;;;;4859095;29;20479;-77
2022/08/28 19:40:37;;;;;;;2.13;0.70;;;17.10;99.90;;;;;;4859284;29;20563;-77
2022/08/28 19:43:04;;;;;;;2.53;0.75;;;17.00;99.90;;;;;;4859743;29;20059;-77
2022/08/28 19:45:30;;;;;;;1.92;0.70;;;17.00;99.90;;;;;;4859427;29;20600;-77
2022/08/28 19:47:56;;;;;;;3.38;0.90;;;16.90;99.90;;;;;;4859286;29;20128;-77
2022/08/28 19:50:22;;;;;;;3.28;0.65;;;16.80;99.90;;;;;;4859099;29;20030;-77
2022/08/28 19:52:47;;;;;;;3.22;0.85;;;16.70;99.90;;;;;;4859033;29;20493;-77
2022/08/28 19:55:20;;;;;;;3.45;0.70;;;16.70;99.90;;;;;;4859377;29;20021;-77
2022/08/28 19:57:47;;;;;;;2.92;1.02;;;16.60;99.90;;;;;;4859141;29;20022;-78
2022/08/28 20:00:18;;;;;;;4.47;0.88;;;16.50;99.90;;;;;;4859289;29;20057;-77
2022/08/28 20:02:44;;;;;;;2.03;0.82;;;16.40;99.90;;;;;;4859065;29;20483;-77
2022/08/28 20:05:10;;;;;;;1.88;1.00;;;16.20;99.90;;;;;;4859236;29;20044;-77
2022/08/28 20:07:36;;;;;;;1.77;1.05;;;16.20;99.90;;;;;;4857910;29;20037;-76
2022/08/28 20:10:03;;;;;;;3.28;0.90;;;16.10;99.90;;;;;;4859346;29;20086;-77
2022/08/28 20:12:29;;;;;;;2.60;1.13;;;16.10;99.90;;;;;;4859248;29;20030;-77
2022/08/28 20:14:55;;;;;;;0.93;0.63;;;15.90;99.90;;;;;;4859026;29;20025;-77
2022/08/28 20:17:21;;;;;;;2.40;0.88;;;15.90;99.90;;;;;;4858955;29;20053;-77
2022/08/28 20:19:47;;;;;;;1.45;0.70;;;15.90;99.90;;;;;;4859308;29;20072;-77
2022/08/28 20:22:13;;;;;;;3.45;0.98;;;15.90;99.90;;;;;;4858986;29;20456;-77
2022/08/28 20:24:39;;;;;;;1.48;0.75;;;15.90;99.90;;;;;;4858973;29;20026;-77
2022/08/28 20:27:04;;;;;;;1.85;0.80;;;15.90;99.90;;;;;;4858665;29;20128;-77
2022/08/28 20:29:32;;;;;;;3.97;1.48;;;16.00;99.90;;;;;;4858971;29;20026;-77
2022/08/28 20:31:59;;;;;;;4.75;1.10;;;16.00;99.90;;;;;;4857572;29;20090;-77
2022/08/28 20:34:26;;;;;;;3.45;0.80;;;16.00;99.90;;;;;;4858993;29;20025;-77
2022/08/28 20:36:52;;;;;;;1.70;1.05;;;16.00;99.90;;;;;;4858590;29;20037;-77
2022/08/28 20:39:18;;;;;;;2.45;0.80;;;15.90;99.90;;;;;;4858823;29;20030;-77
2022/08/28 20:41:44;;;;;;;2.70;1.00;;;15.80;99.90;;;;;;4871547;23;20069;-73
2022/08/28 20:44:13;;;;;;;1.52;0.90;;;15.80;99.90;;;;;;4865927;29;20040;-73
2022/08/28 20:46:40;;;;;;;3.83;1.02;;;15.80;99.90;;;;;;4860017;29;20120;-73
2022/08/28 20:49:06;;;;;;;1.45;0.80;;;15.70;99.90;;;;;;4862288;29;20068;-73
2022/08/28 20:54:21;;;;;;;3.03;1.27;;;15.60;99.90;;;;;;4862252;29;20060;-76
2022/08/28 20:56:48;;;;;;;4.03;1.10;;;15.60;99.90;;;;;;4862210;29;20471;-73
2022/08/28 20:59:14;;;;;;;6.00;1.13;;;15.60;99.90;;;;;;4861908;29;20141;-74
2022/08/28 21:01:40;;;;;;;1.75;1.25;;;15.50;99.90;;;;;;4862189;29;20031;-73